sensor_id;sensor_type;location;lat;lon;timestamp;P1;durP1;ratioP1;P2;durP2;ratioP2
78824;SDS011;68176;45.554;10.220;2023-03-24T00:00:33;5.35;;;3.63;;
78824;SDS011;68176;45.554;10.220;2023-03-24T00:03:03;5.95;;;4.65;;
78824;SDS011;68176;45.554;10.220;2023-03-24T00:05:33;6.57;;;4.10;;
78824;SDS011;68176;45.554;10.220;2023-03-24T00:08:03;8.18;;;4.43;;
78824;SDS011;68176;45.554;10.220;2023-03-24T00:10:33;4.88;;;3.70;;
78824;SDS011;68176;45.554;10.220;2023-03-24T00:13:03;5.20;;;4.30;;
78824;SDS011;68176;45.554;10.220;2023-03-24T00:15:33;5.72;;;4.13;;
78824;SDS011;68176;45.554;10.220;2023-03-24T00:18:03;5.72;;;4.03;;
78824;SDS011;68176;45.554;10.220;2023-03-24T00:20:33;7.32;;;4.38;;
78824;SDS011;68176;45.554;10.220;2023-03-24T00:23:03;7.85;;;4.32;;
78824;SDS011;68176;45.554;10.220;2023-03-24T00:25:33;7.25;;;3.33;;
78824;SDS011;68176;45.554;10.220;2023-03-24T00:28:03;5.95;;;3.63;;
78824;SDS011;68176;45.554;10.220;2023-03-24T00:30:33;5.50;;;4.13;;
78824;SDS011;68176;45.554;10.220;2023-03-24T00:33:03;7.50;;;4.72;;
78824;SDS011;68176;45.554;10.220;2023-03-24T00:35:33;5.68;;;3.70;;
78824;SDS011;68176;45.554;10.220;2023-03-24T00:38:03;8.77;;;4.32;;
78824;SDS011;68176;45.554;10.220;2023-03-24T00:40:33;5.88;;;4.07;;
78824;SDS011;68176;45.554;10.220;2023-03-24T00:43:03;5.70;;;4.25;;
78824;SDS011;68176;45.554;10.220;2023-03-24T00:48:03;8.63;;;4.40;;
78824;SDS011;68176;45.554;10.220;2023-03-24T00:50:33;6.40;;;3.78;;
78824;SDS011;68176;45.554;10.220;2023-03-24T00:53:03;7.43;;;4.35;;
78824;SDS011;68176;45.554;10.220;2023-03-24T00:55:33;5.07;;;4.05;;
78824;SDS011;68176;45.554;10.220;2023-03-24T00:58:03;5.07;;;3.97;;
78824;SDS011;68176;45.554;10.220;2023-03-24T01:00:33;6.57;;;3.78;;
78824;SDS011;68176;45.554;10.220;2023-03-24T01:03:03;6.30;;;3.75;;
78824;SDS011;68176;45.554;10.220;2023-03-24T01:05:33;4.75;;;3.50;;
78824;SDS011;68176;45.554;10.220;2023-03-24T01:08:04;4.22;;;2.90;;
78824;SDS011;68176;45.554;10.220;2023-03-24T01:10:34;4.97;;;3.65;;
78824;SDS011;68176;45.554;10.220;2023-03-24T01:13:06;4.05;;;2.35;;
78824;SDS011;68176;45.554;10.220;2023-03-24T01:15:33;4.35;;;3.47;;
78824;SDS011;68176;45.554;10.220;2023-03-24T01:18:03;7.03;;;4.30;;
78824;SDS011;68176;45.554;10.220;2023-03-24T01:20:33;5.20;;;3.22;;
78824;SDS011;68176;45.554;10.220;2023-03-24T01:23:03;5.13;;;4.63;;
78824;SDS011;68176;45.554;10.220;2023-03-24T01:25:34;6.35;;;4.38;;
78824;SDS011;68176;45.554;10.220;2023-03-24T01:28:03;4.03;;;3.38;;
78824;SDS011;68176;45.554;10.220;2023-03-24T01:30:33;4.75;;;3.03;;
78824;SDS011;68176;45.554;10.220;2023-03-24T01:33:03;6.65;;;3.58;;
78824;SDS011;68176;45.554;10.220;2023-03-24T01:35:33;6.80;;;4.45;;
78824;SDS011;68176;45.554;10.220;2023-03-24T01:38:04;5.18;;;3.88;;
78824;SDS011;68176;45.554;10.220;2023-03-24T01:40:35;4.30;;;3.40;;
78824;SDS011;68176;45.554;10.220;2023-03-24T01:43:04;7.20;;;3.65;;
78824;SDS011;68176;45.554;10.220;2023-03-24T01:48:30;5.60;;;3.63;;
78824;SDS011;68176;45.554;10.220;2023-03-24T01:53:32;4.82;;;3.60;;
78824;SDS011;68176;45.554;10.220;2023-03-24T01:56:01;5.20;;;3.55;;
78824;SDS011;68176;45.554;10.220;2023-03-24T02:00:56;6.13;;;3.42;;
78824;SDS011;68176;45.554;10.220;2023-03-24T02:03:26;6.82;;;3.72;;
78824;SDS011;68176;45.554;10.220;2023-03-24T02:05:56;5.63;;;4.10;;
78824;SDS011;68176;45.554;10.220;2023-03-24T02:08:35;4.85;;;3.40;;
78824;SDS011;68176;45.554;10.220;2023-03-24T02:11:12;5.85;;;3.80;;
78824;SDS011;68176;45.554;10.220;2023-03-24T02:13:38;3.45;;;2.50;;
78824;SDS011;68176;45.554;10.220;2023-03-24T02:16:11;6.95;;;3.83;;
78824;SDS011;68176;45.554;10.220;2023-03-24T02:27:42;4.85;;;4.22;;
78824;SDS011;68176;45.554;10.220;2023-03-24T02:42:37;4.43;;;3.33;;
78824;SDS011;68176;45.554;10.220;2023-03-24T02:48:33;6.65;;;4.00;;
78824;SDS011;68176;45.554;10.220;2023-03-24T02:53:53;6.07;;;2.83;;
78824;SDS011;68176;45.554;10.220;2023-03-24T03:04:13;4.50;;;3.93;;
78824;SDS011;68176;45.554;10.220;2023-03-24T03:06:42;5.27;;;3.47;;
78824;SDS011;68176;45.554;10.220;2023-03-24T03:09:15;4.93;;;3.13;;
78824;SDS011;68176;45.554;10.220;2023-03-24T03:11:43;6.05;;;3.90;;
78824;SDS011;68176;45.554;10.220;2023-03-24T03:14:13;4.15;;;3.75;;
78824;SDS011;68176;45.554;10.220;2023-03-24T03:16:45;5.80;;;3.92;;
78824;SDS011;68176;45.554;10.220;2023-03-24T03:19:26;2.97;;;2.55;;
78824;SDS011;68176;45.554;10.220;2023-03-24T03:21:57;4.20;;;3.58;;
78824;SDS011;68176;45.554;10.220;2023-03-24T03:24:37;5.15;;;3.75;;
78824;SDS011;68176;45.554;10.220;2023-03-24T03:27:07;6.20;;;3.47;;
78824;SDS011;68176;45.554;10.220;2023-03-24T03:29:50;5.25;;;3.17;;
78824;SDS011;68176;45.554;10.220;2023-03-24T03:32:21;4.85;;;2.85;;
78824;SDS011;68176;45.554;10.220;2023-03-24T03:37:34;5.03;;;3.60;;
78824;SDS011;68176;45.554;10.220;2023-03-24T03:40:03;4.90;;;3.60;;
78824;SDS011;68176;45.554;10.220;2023-03-24T03:42:36;5.63;;;3.17;;
78824;SDS011;68176;45.554;10.220;2023-03-24T03:45:01;2.80;;;2.20;;
78824;SDS011;68176;45.554;10.220;2023-03-24T03:47:30;6.05;;;4.00;;
78824;SDS011;68176;45.554;10.220;2023-03-24T03:50:00;5.75;;;3.95;;
78824;SDS011;68176;45.554;10.220;2023-03-24T03:52:30;4.70;;;3.80;;
78824;SDS011;68176;45.554;10.220;2023-03-24T03:55:00;4.82;;;3.88;;
78824;SDS011;68176;45.554;10.220;2023-03-24T03:57:30;5.80;;;4.00;;
78824;SDS011;68176;45.554;10.220;2023-03-24T04:00:01;6.57;;;3.75;;
78824;SDS011;68176;45.554;10.220;2023-03-24T04:02:53;4.85;;;2.78;;
78824;SDS011;68176;45.554;10.220;2023-03-24T04:05:23;5.05;;;3.05;;
78824;SDS011;68176;45.554;10.220;2023-03-24T04:08:14;6.40;;;3.95;;
78824;SDS011;68176;45.554;10.220;2023-03-24T04:13:58;4.10;;;2.70;;
78824;SDS011;68176;45.554;10.220;2023-03-24T04:27:33;5.13;;;3.50;;
78824;SDS011;68176;45.554;10.220;2023-03-24T04:35:18;4.47;;;3.10;;
78824;SDS011;68176;45.554;10.220;2023-03-24T04:37:55;4.70;;;3.23;;
78824;SDS011;68176;45.554;10.220;2023-03-24T04:40:26;4.20;;;3.47;;
78824;SDS011;68176;45.554;10.220;2023-03-24T04:42:54;5.40;;;3.40;;
78824;SDS011;68176;45.554;10.220;2023-03-24T04:45:21;4.70;;;2.80;;
78824;SDS011;68176;45.554;10.220;2023-03-24T04:47:52;4.53;;;3.88;;
78824;SDS011;68176;45.554;10.220;2023-03-24T04:50:54;4.65;;;4.00;;
78824;SDS011;68176;45.554;10.220;2023-03-24T04:53:24;3.60;;;3.03;;
78824;SDS011;68176;45.554;10.220;2023-03-24T04:55:56;4.30;;;3.30;;
78824;SDS011;68176;45.554;10.220;2023-03-24T04:58:26;6.27;;;3.17;;
78824;SDS011;68176;45.554;10.220;2023-03-24T05:00:52;3.60;;;3.30;;
78824;SDS011;68176;45.554;10.220;2023-03-24T05:03:20;6.30;;;4.10;;
78824;SDS011;68176;45.554;10.220;2023-03-24T05:05:51;5.25;;;3.58;;
78824;SDS011;68176;45.554;10.220;2023-03-24T05:08:20;6.13;;;3.83;;
78824;SDS011;68176;45.554;10.220;2023-03-24T05:10:50;4.07;;;3.42;;
78824;SDS011;68176;45.554;10.220;2023-03-24T05:13:20;4.40;;;3.15;;
78824;SDS011;68176;45.554;10.220;2023-03-24T05:15:53;4.32;;;3.35;;
78824;SDS011;68176;45.554;10.220;2023-03-24T05:18:20;4.05;;;3.22;;
78824;SDS011;68176;45.554;10.220;2023-03-24T05:20:50;4.43;;;3.60;;
78824;SDS011;68176;45.554;10.220;2023-03-24T05:23:20;4.43;;;2.92;;
78824;SDS011;68176;45.554;10.220;2023-03-24T05:25:50;4.03;;;3.05;;
78824;SDS011;68176;45.554;10.220;2023-03-24T05:28:20;4.10;;;3.08;;
78824;SDS011;68176;45.554;10.220;2023-03-24T05:30:50;6.20;;;3.85;;
78824;SDS011;68176;45.554;10.220;2023-03-24T05:33:20;5.07;;;3.40;;
78824;SDS011;68176;45.554;10.220;2023-03-24T05:35:51;4.05;;;3.53;;
78824;SDS011;68176;45.554;10.220;2023-03-24T05:38:20;4.88;;;3.65;;
78824;SDS011;68176;45.554;10.220;2023-03-24T05:40:51;4.18;;;3.42;;
78824;SDS011;68176;45.554;10.220;2023-03-24T05:43:21;4.50;;;3.45;;
78824;SDS011;68176;45.554;10.220;2023-03-24T05:45:50;4.63;;;3.58;;
78824;SDS011;68176;45.554;10.220;2023-03-24T05:48:21;4.82;;;3.15;;
78824;SDS011;68176;45.554;10.220;2023-03-24T05:50:51;5.03;;;4.43;;
78824;SDS011;68176;45.554;10.220;2023-03-24T05:53:20;4.15;;;2.95;;
78824;SDS011;68176;45.554;10.220;2023-03-24T05:55:50;5.68;;;3.97;;
78824;SDS011;68176;45.554;10.220;2023-03-24T05:58:21;5.70;;;4.25;;
78824;SDS011;68176;45.554;10.220;2023-03-24T06:00:50;4.60;;;3.33;;
78824;SDS011;68176;45.554;10.220;2023-03-24T06:03:20;3.83;;;2.78;;
78824;SDS011;68176;45.554;10.220;2023-03-24T06:05:51;4.05;;;3.22;;
78824;SDS011;68176;45.554;10.220;2023-03-24T06:08:20;5.03;;;3.28;;
78824;SDS011;68176;45.554;10.220;2023-03-24T06:10:51;4.95;;;3.45;;
78824;SDS011;68176;45.554;10.220;2023-03-24T06:13:21;4.57;;;3.65;;
78824;SDS011;68176;45.554;10.220;2023-03-24T06:15:51;5.32;;;3.08;;
78824;SDS011;68176;45.554;10.220;2023-03-24T06:18:21;4.82;;;2.85;;
78824;SDS011;68176;45.554;10.220;2023-03-24T06:20:51;5.85;;;2.95;;
78824;SDS011;68176;45.554;10.220;2023-03-24T06:23:24;4.43;;;3.60;;
78824;SDS011;68176;45.554;10.220;2023-03-24T06:28:21;5.75;;;3.38;;
78824;SDS011;68176;45.554;10.220;2023-03-24T06:30:51;5.78;;;3.42;;
78824;SDS011;68176;45.554;10.220;2023-03-24T06:33:21;3.67;;;3.10;;
78824;SDS011;68176;45.554;10.220;2023-03-24T06:35:51;4.43;;;3.25;;
78824;SDS011;68176;45.554;10.220;2023-03-24T06:38:21;4.07;;;3.33;;
78824;SDS011;68176;45.554;10.220;2023-03-24T06:40:51;5.70;;;3.45;;
78824;SDS011;68176;45.554;10.220;2023-03-24T06:43:21;4.22;;;3.03;;
78824;SDS011;68176;45.554;10.220;2023-03-24T06:45:51;4.45;;;3.53;;
78824;SDS011;68176;45.554;10.220;2023-03-24T06:50:51;4.07;;;3.10;;
78824;SDS011;68176;45.554;10.220;2023-03-24T06:53:21;3.55;;;2.78;;
78824;SDS011;68176;45.554;10.220;2023-03-24T06:55:51;3.05;;;2.47;;
78824;SDS011;68176;45.554;10.220;2023-03-24T07:00:51;4.22;;;3.47;;
78824;SDS011;68176;45.554;10.220;2023-03-24T07:03:21;4.50;;;2.97;;
78824;SDS011;68176;45.554;10.220;2023-03-24T07:05:51;5.80;;;3.95;;
78824;SDS011;68176;45.554;10.220;2023-03-24T07:08:21;4.43;;;2.85;;
78824;SDS011;68176;45.554;10.220;2023-03-24T07:10:51;4.38;;;3.65;;
78824;SDS011;68176;45.554;10.220;2023-03-24T07:13:21;3.63;;;3.05;;
78824;SDS011;68176;45.554;10.220;2023-03-24T07:15:51;5.05;;;3.25;;
78824;SDS011;68176;45.554;10.220;2023-03-24T07:18:21;4.22;;;2.78;;
78824;SDS011;68176;45.554;10.220;2023-03-24T07:20:51;3.78;;;3.13;;
78824;SDS011;68176;45.554;10.220;2023-03-24T07:23:21;20.27;;;8.10;;
78824;SDS011;68176;45.554;10.220;2023-03-24T07:25:51;7.68;;;6.00;;
78824;SDS011;68176;45.554;10.220;2023-03-24T07:28:21;16.77;;;5.97;;
78824;SDS011;68176;45.554;10.220;2023-03-24T07:30:51;9.93;;;5.78;;
78824;SDS011;68176;45.554;10.220;2023-03-24T07:33:21;7.47;;;4.80;;
78824;SDS011;68176;45.554;10.220;2023-03-24T07:35:55;8.43;;;5.60;;
78824;SDS011;68176;45.554;10.220;2023-03-24T07:38:21;6.22;;;4.07;;
78824;SDS011;68176;45.554;10.220;2023-03-24T07:40:51;8.13;;;5.95;;
78824;SDS011;68176;45.554;10.220;2023-03-24T07:43:21;8.35;;;5.07;;
78824;SDS011;68176;45.554;10.220;2023-03-24T07:45:51;12.40;;;4.65;;
78824;SDS011;68176;45.554;10.220;2023-03-24T07:48:21;11.25;;;4.50;;
78824;SDS011;68176;45.554;10.220;2023-03-24T07:50:52;9.90;;;5.20;;
78824;SDS011;68176;45.554;10.220;2023-03-24T07:53:21;6.45;;;4.53;;
78824;SDS011;68176;45.554;10.220;2023-03-24T07:55:51;9.15;;;4.50;;
78824;SDS011;68176;45.554;10.220;2023-03-24T07:58:21;8.48;;;4.65;;
78824;SDS011;68176;45.554;10.220;2023-03-24T08:00:51;7.57;;;4.15;;
78824;SDS011;68176;45.554;10.220;2023-03-24T08:03:21;6.47;;;4.25;;
78824;SDS011;68176;45.554;10.220;2023-03-24T08:05:51;9.90;;;4.32;;
78824;SDS011;68176;45.554;10.220;2023-03-24T08:08:21;8.52;;;3.95;;
78824;SDS011;68176;45.554;10.220;2023-03-24T08:10:51;16.88;;;5.43;;
78824;SDS011;68176;45.554;10.220;2023-03-24T08:15:51;11.15;;;4.40;;
78824;SDS011;68176;45.554;10.220;2023-03-24T08:18:22;14.95;;;5.05;;
78824;SDS011;68176;45.554;10.220;2023-03-24T08:20:55;11.18;;;4.38;;
78824;SDS011;68176;45.554;10.220;2023-03-24T08:23:22;6.10;;;3.83;;
78824;SDS011;68176;45.554;10.220;2023-03-24T08:25:51;14.32;;;4.32;;
78824;SDS011;68176;45.554;10.220;2023-03-24T08:28:21;7.97;;;4.10;;
78824;SDS011;68176;45.554;10.220;2023-03-24T08:30:51;6.30;;;2.88;;
78824;SDS011;68176;45.554;10.220;2023-03-24T08:33:21;5.78;;;2.28;;
78824;SDS011;68176;45.554;10.220;2023-03-24T08:35:51;3.90;;;2.15;;
78824;SDS011;68176;45.554;10.220;2023-03-24T08:38:21;2.33;;;1.97;;
78824;SDS011;68176;45.554;10.220;2023-03-24T08:40:54;2.50;;;2.00;;
78824;SDS011;68176;45.554;10.220;2023-03-24T08:43:21;7.53;;;2.33;;
78824;SDS011;68176;45.554;10.220;2023-03-24T08:45:51;6.30;;;2.33;;
78824;SDS011;68176;45.554;10.220;2023-03-24T08:48:21;3.58;;;2.50;;
78824;SDS011;68176;45.554;10.220;2023-03-24T08:50:51;4.57;;;2.33;;
78824;SDS011;68176;45.554;10.220;2023-03-24T08:53:21;3.97;;;1.92;;
78824;SDS011;68176;45.554;10.220;2023-03-24T08:55:51;6.82;;;2.35;;
78824;SDS011;68176;45.554;10.220;2023-03-24T08:58:21;2.78;;;1.60;;
78824;SDS011;68176;45.554;10.220;2023-03-24T09:03:21;4.15;;;2.03;;
78824;SDS011;68176;45.554;10.220;2023-03-24T09:05:54;6.25;;;1.92;;
78824;SDS011;68176;45.554;10.220;2023-03-24T09:08:23;1.70;;;0.80;;
78824;SDS011;68176;45.554;10.220;2023-03-24T09:10:51;9.80;;;1.85;;
78824;SDS011;68176;45.554;10.220;2023-03-24T09:13:21;6.85;;;2.08;;
78824;SDS011;68176;45.554;10.220;2023-03-24T09:18:22;3.35;;;1.40;;
78824;SDS011;68176;45.554;10.220;2023-03-24T09:20:52;3.72;;;1.63;;
78824;SDS011;68176;45.554;10.220;2023-03-24T09:23:21;5.13;;;1.52;;
78824;SDS011;68176;45.554;10.220;2023-03-24T09:25:52;4.78;;;1.58;;
78824;SDS011;68176;45.554;10.220;2023-03-24T09:28:23;4.25;;;1.55;;
78824;SDS011;68176;45.554;10.220;2023-03-24T09:30:56;3.05;;;1.42;;
78824;SDS011;68176;45.554;10.220;2023-03-24T09:33:25;2.60;;;1.30;;
78824;SDS011;68176;45.554;10.220;2023-03-24T09:35:54;1.60;;;1.10;;
78824;SDS011;68176;45.554;10.220;2023-03-24T09:38:24;1.70;;;1.20;;
78824;SDS011;68176;45.554;10.220;2023-03-24T09:40:59;4.43;;;1.27;;
78824;SDS011;68176;45.554;10.220;2023-03-24T09:43:36;5.80;;;1.50;;
78824;SDS011;68176;45.554;10.220;2023-03-24T09:46:10;2.47;;;1.47;;
78824;SDS011;68176;45.554;10.220;2023-03-24T09:48:45;2.25;;;0.98;;
78824;SDS011;68176;45.554;10.220;2023-03-24T09:56:36;2.23;;;1.03;;
78824;SDS011;68176;45.554;10.220;2023-03-24T09:59:11;2.33;;;1.75;;
78824;SDS011;68176;45.554;10.220;2023-03-24T10:01:41;2.08;;;1.15;;
78824;SDS011;68176;45.554;10.220;2023-03-24T10:04:12;1.20;;;1.00;;
78824;SDS011;68176;45.554;10.220;2023-03-24T10:06:40;3.55;;;0.90;;
78824;SDS011;68176;45.554;10.220;2023-03-24T10:14:45;3.92;;;1.42;;
78824;SDS011;68176;45.554;10.220;2023-03-24T10:17:28;3.13;;;1.52;;
78824;SDS011;68176;45.554;10.220;2023-03-24T10:20:34;6.03;;;1.52;;
78824;SDS011;68176;45.554;10.220;2023-03-24T10:28:49;2.35;;;1.35;;
78824;SDS011;68176;45.554;10.220;2023-03-24T10:31:35;2.40;;;1.60;;
78824;SDS011;68176;45.554;10.220;2023-03-24T10:34:02;1.70;;;1.00;;
78824;SDS011;68176;45.554;10.220;2023-03-24T10:36:29;2.30;;;1.23;;
78824;SDS011;68176;45.554;10.220;2023-03-24T10:38:59;4.57;;;1.15;;
78824;SDS011;68176;45.554;10.220;2023-03-24T10:41:29;2.55;;;1.25;;
78824;SDS011;68176;45.554;10.220;2023-03-24T10:43:59;2.38;;;0.75;;
78824;SDS011;68176;45.554;10.220;2023-03-24T10:46:29;3.13;;;1.42;;
78824;SDS011;68176;45.554;10.220;2023-03-24T10:51:41;2.00;;;1.02;;
78824;SDS011;68176;45.554;10.220;2023-03-24T10:57:00;1.80;;;1.10;;
78824;SDS011;68176;45.554;10.220;2023-03-24T11:02:16;2.37;;;0.87;;
78824;SDS011;68176;45.554;10.220;2023-03-24T11:07:36;2.17;;;1.15;;
78824;SDS011;68176;45.554;10.220;2023-03-24T11:10:13;1.15;;;0.80;;
78824;SDS011;68176;45.554;10.220;2023-03-24T11:12:57;1.90;;;1.17;;
78824;SDS011;68176;45.554;10.220;2023-03-24T11:15:30;1.73;;;1.05;;
78824;SDS011;68176;45.554;10.220;2023-03-24T11:18:06;2.00;;;0.88;;
78824;SDS011;68176;45.554;10.220;2023-03-24T11:20:56;2.38;;;1.27;;
78824;SDS011;68176;45.554;10.220;2023-03-24T11:23:31;0.90;;;0.53;;
78824;SDS011;68176;45.554;10.220;2023-03-24T11:28:40;4.32;;;1.63;;
78824;SDS011;68176;45.554;10.220;2023-03-24T11:31:07;3.15;;;1.20;;
78824;SDS011;68176;45.554;10.220;2023-03-24T11:33:40;1.40;;;0.80;;
78824;SDS011;68176;45.554;10.220;2023-03-24T11:39:08;2.00;;;1.57;;
78824;SDS011;68176;45.554;10.220;2023-03-24T11:41:36;7.30;;;2.03;;
78824;SDS011;68176;45.554;10.220;2023-03-24T11:44:15;1.90;;;1.50;;
78824;SDS011;68176;45.554;10.220;2023-03-24T11:46:43;2.95;;;1.30;;
78824;SDS011;68176;45.554;10.220;2023-03-24T11:49:15;6.88;;;1.25;;
78824;SDS011;68176;45.554;10.220;2023-03-24T11:51:45;4.77;;;1.67;;
78824;SDS011;68176;45.554;10.220;2023-03-24T11:54:15;6.57;;;1.93;;
78824;SDS011;68176;45.554;10.220;2023-03-24T11:56:51;2.30;;;1.13;;
78824;SDS011;68176;45.554;10.220;2023-03-24T12:07:30;3.10;;;1.23;;
78824;SDS011;68176;45.554;10.220;2023-03-24T12:13:22;4.37;;;1.30;;
78824;SDS011;68176;45.554;10.220;2023-03-24T12:21:13;4.30;;;1.73;;
78824;SDS011;68176;45.554;10.220;2023-03-24T12:23:56;2.17;;;0.97;;
78824;SDS011;68176;45.554;10.220;2023-03-24T12:26:29;7.80;;;1.08;;
78824;SDS011;68176;45.554;10.220;2023-03-24T12:38:08;2.73;;;2.03;;
78824;SDS011;68176;45.554;10.220;2023-03-24T12:43:41;2.87;;;1.33;;
78824;SDS011;68176;45.554;10.220;2023-03-24T12:54:47;4.38;;;1.50;;
78824;SDS011;68176;45.554;10.220;2023-03-24T12:57:20;2.97;;;1.17;;
78824;SDS011;68176;45.554;10.220;2023-03-24T12:59:56;2.55;;;1.85;;
78824;SDS011;68176;45.554;10.220;2023-03-24T13:07:31;5.65;;;2.15;;
78824;SDS011;68176;45.554;10.220;2023-03-24T13:12:43;5.97;;;1.70;;
78824;SDS011;68176;45.554;10.220;2023-03-24T13:15:17;3.03;;;1.77;;
78824;SDS011;68176;45.554;10.220;2023-03-24T13:17:49;15.90;;;1.93;;
78824;SDS011;68176;45.554;10.220;2023-03-24T13:20:24;3.28;;;2.20;;
78824;SDS011;68176;45.554;10.220;2023-03-24T13:22:51;9.65;;;1.67;;
78824;SDS011;68176;45.554;10.220;2023-03-24T13:28:14;9.40;;;2.08;;
78824;SDS011;68176;45.554;10.220;2023-03-24T13:30:46;2.03;;;1.57;;
78824;SDS011;68176;45.554;10.220;2023-03-24T13:33:14;16.45;;;1.75;;
78824;SDS011;68176;45.554;10.220;2023-03-24T13:38:39;3.25;;;1.88;;
78824;SDS011;68176;45.554;10.220;2023-03-24T13:41:20;4.93;;;2.33;;
78824;SDS011;68176;45.554;10.220;2023-03-24T13:43:59;10.05;;;1.92;;
78824;SDS011;68176;45.554;10.220;2023-03-24T13:46:28;3.23;;;1.60;;
78824;SDS011;68176;45.554;10.220;2023-03-24T13:48:54;7.90;;;2.25;;
78824;SDS011;68176;45.554;10.220;2023-03-24T13:53:59;3.60;;;1.75;;
78824;SDS011;68176;45.554;10.220;2023-03-24T13:56:31;5.53;;;2.07;;
78824;SDS011;68176;45.554;10.220;2023-03-24T14:01:43;10.02;;;1.95;;
78824;SDS011;68176;45.554;10.220;2023-03-24T14:07:42;6.27;;;1.20;;
78824;SDS011;68176;45.554;10.220;2023-03-24T14:15:26;2.63;;;2.03;;
78824;SDS011;68176;45.554;10.220;2023-03-24T14:17:53;3.28;;;1.45;;
78824;SDS011;68176;45.554;10.220;2023-03-24T14:20:33;4.60;;;1.00;;
78824;SDS011;68176;45.554;10.220;2023-03-24T14:23:02;14.07;;;2.90;;
78824;SDS011;68176;45.554;10.220;2023-03-24T14:25:29;1.40;;;0.90;;
78824;SDS011;68176;45.554;10.220;2023-03-24T14:28:10;4.45;;;1.10;;
78824;SDS011;68176;45.554;10.220;2023-03-24T14:33:34;3.45;;;1.20;;
78824;SDS011;68176;45.554;10.220;2023-03-24T14:36:03;0.10;;;0.10;;
78824;SDS011;68176;45.554;10.220;2023-03-24T14:38:40;3.10;;;0.90;;
78824;SDS011;68176;45.554;10.220;2023-03-24T14:41:10;3.05;;;1.27;;
78824;SDS011;68176;45.554;10.220;2023-03-24T14:46:07;8.30;;;0.90;;
78824;SDS011;68176;45.554;10.220;2023-03-24T14:49:03;3.38;;;1.15;;
78824;SDS011;68176;45.554;10.220;2023-03-24T14:51:40;7.97;;;1.05;;
78824;SDS011;68176;45.554;10.220;2023-03-24T14:54:15;7.25;;;1.35;;
78824;SDS011;68176;45.554;10.220;2023-03-24T14:56:44;2.90;;;1.60;;
78824;SDS011;68176;45.554;10.220;2023-03-24T15:07:43;10.68;;;1.55;;
78824;SDS011;68176;45.554;10.220;2023-03-24T15:10:17;8.80;;;1.45;;
78824;SDS011;68176;45.554;10.220;2023-03-24T15:12:44;4.70;;;1.20;;
78824;SDS011;68176;45.554;10.220;2023-03-24T15:15:13;1.60;;;1.00;;
78824;SDS011;68176;45.554;10.220;2023-03-24T15:17:41;2.75;;;1.55;;
78824;SDS011;68176;45.554;10.220;2023-03-24T15:20:18;17.40;;;2.40;;
78824;SDS011;68176;45.554;10.220;2023-03-24T15:25:10;10.40;;;2.70;;
78824;SDS011;68176;45.554;10.220;2023-03-24T15:27:38;4.00;;;1.90;;
78824;SDS011;68176;45.554;10.220;2023-03-24T15:30:12;4.63;;;1.52;;
78824;SDS011;68176;45.554;10.220;2023-03-24T15:32:38;3.93;;;1.77;;
78824;SDS011;68176;45.554;10.220;2023-03-24T15:37:39;6.88;;;3.97;;
78824;SDS011;68176;45.554;10.220;2023-03-24T15:42:55;2.50;;;1.50;;
78824;SDS011;68176;45.554;10.220;2023-03-24T15:45:28;5.57;;;2.17;;
78824;SDS011;68176;45.554;10.220;2023-03-24T15:47:55;4.10;;;3.03;;
78824;SDS011;68176;45.554;10.220;2023-03-24T15:50:35;8.25;;;1.40;;
78824;SDS011;68176;45.554;10.220;2023-03-24T15:57:59;1.60;;;1.30;;
78824;SDS011;68176;45.554;10.220;2023-03-24T16:00:28;3.55;;;1.75;;
78824;SDS011;68176;45.554;10.220;2023-03-24T16:03:01;2.40;;;1.50;;
78824;SDS011;68176;45.554;10.220;2023-03-24T16:05:31;1.70;;;1.20;;
78824;SDS011;68176;45.554;10.220;2023-03-24T16:08:07;4.60;;;1.60;;
78824;SDS011;68176;45.554;10.220;2023-03-24T16:11:04;2.42;;;1.88;;
78824;SDS011;68176;45.554;10.220;2023-03-24T16:13:34;9.90;;;2.03;;
78824;SDS011;68176;45.554;10.220;2023-03-24T16:16:06;1.70;;;1.00;;
78824;SDS011;68176;45.554;10.220;2023-03-24T16:18:38;3.83;;;2.17;;
78824;SDS011;68176;45.554;10.220;2023-03-24T16:21:10;6.20;;;3.07;;
78824;SDS011;68176;45.554;10.220;2023-03-24T16:23:37;6.40;;;2.17;;
78824;SDS011;68176;45.554;10.220;2023-03-24T16:26:03;1.00;;;0.50;;
78824;SDS011;68176;45.554;10.220;2023-03-24T16:28:32;5.35;;;1.67;;
78824;SDS011;68176;45.554;10.220;2023-03-24T16:31:02;4.00;;;2.15;;
78824;SDS011;68176;45.554;10.220;2023-03-24T16:33:32;5.20;;;2.03;;
78824;SDS011;68176;45.554;10.220;2023-03-24T16:36:02;6.65;;;1.58;;
78824;SDS011;68176;45.554;10.220;2023-03-24T16:38:32;6.18;;;1.75;;
78824;SDS011;68176;45.554;10.220;2023-03-24T16:41:02;3.03;;;1.40;;
78824;SDS011;68176;45.554;10.220;2023-03-24T16:43:32;5.65;;;1.75;;
78824;SDS011;68176;45.554;10.220;2023-03-24T16:46:02;3.22;;;1.50;;
78824;SDS011;68176;45.554;10.220;2023-03-24T16:48:32;3.85;;;1.67;;
78824;SDS011;68176;45.554;10.220;2023-03-24T16:51:02;4.72;;;2.40;;
78824;SDS011;68176;45.554;10.220;2023-03-24T16:53:32;7.78;;;2.00;;
78824;SDS011;68176;45.554;10.220;2023-03-24T16:56:02;3.95;;;1.67;;
78824;SDS011;68176;45.554;10.220;2023-03-24T16:58:32;5.50;;;1.85;;
78824;SDS011;68176;45.554;10.220;2023-03-24T17:01:03;2.53;;;1.60;;
78824;SDS011;68176;45.554;10.220;2023-03-24T17:03:49;2.25;;;1.45;;
78824;SDS011;68176;45.554;10.220;2023-03-24T17:06:18;4.25;;;1.90;;
78824;SDS011;68176;45.554;10.220;2023-03-24T17:11:18;3.58;;;1.83;;
78824;SDS011;68176;45.554;10.220;2023-03-24T17:13:53;2.57;;;1.40;;
78824;SDS011;68176;45.554;10.220;2023-03-24T17:16:21;3.75;;;1.60;;
78824;SDS011;68176;45.554;10.220;2023-03-24T17:18:47;5.75;;;2.15;;
78824;SDS011;68176;45.554;10.220;2023-03-24T17:21:17;3.65;;;1.40;;
78824;SDS011;68176;45.554;10.220;2023-03-24T17:23:47;6.00;;;2.30;;
78824;SDS011;68176;45.554;10.220;2023-03-24T17:26:17;8.55;;;2.40;;
78824;SDS011;68176;45.554;10.220;2023-03-24T17:28:47;4.00;;;2.03;;
78824;SDS011;68176;45.554;10.220;2023-03-24T17:31:17;3.47;;;2.17;;
78824;SDS011;68176;45.554;10.220;2023-03-24T17:33:47;4.28;;;1.90;;
78824;SDS011;68176;45.554;10.220;2023-03-24T17:36:17;4.70;;;2.33;;
78824;SDS011;68176;45.554;10.220;2023-03-24T17:38:47;3.20;;;2.03;;
78824;SDS011;68176;45.554;10.220;2023-03-24T17:41:17;11.30;;;2.13;;
78824;SDS011;68176;45.554;10.220;2023-03-24T17:43:47;4.88;;;2.85;;
78824;SDS011;68176;45.554;10.220;2023-03-24T17:46:17;4.90;;;2.22;;
78824;SDS011;68176;45.554;10.220;2023-03-24T17:48:47;5.20;;;1.83;;
78824;SDS011;68176;45.554;10.220;2023-03-24T17:51:17;10.75;;;1.95;;
78824;SDS011;68176;45.554;10.220;2023-03-24T17:53:47;3.70;;;2.42;;
78824;SDS011;68176;45.554;10.220;2023-03-24T17:56:17;3.65;;;2.50;;
78824;SDS011;68176;45.554;10.220;2023-03-24T17:58:47;2.97;;;1.95;;
78824;SDS011;68176;45.554;10.220;2023-03-24T18:01:17;4.07;;;2.25;;
78824;SDS011;68176;45.554;10.220;2023-03-24T18:03:47;6.75;;;2.55;;
78824;SDS011;68176;45.554;10.220;2023-03-24T18:06:17;3.22;;;2.20;;
78824;SDS011;68176;45.554;10.220;2023-03-24T18:08:49;6.40;;;2.58;;
78824;SDS011;68176;45.554;10.220;2023-03-24T18:11:17;5.00;;;2.58;;
78824;SDS011;68176;45.554;10.220;2023-03-24T18:13:47;8.75;;;2.92;;
78824;SDS011;68176;45.554;10.220;2023-03-24T18:16:17;5.03;;;2.60;;
78824;SDS011;68176;45.554;10.220;2023-03-24T18:18:47;4.80;;;2.90;;
78824;SDS011;68176;45.554;10.220;2023-03-24T18:21:17;12.60;;;3.03;;
78824;SDS011;68176;45.554;10.220;2023-03-24T18:23:47;7.65;;;2.85;;
78824;SDS011;68176;45.554;10.220;2023-03-24T18:26:17;6.05;;;3.00;;